d.8/12 - Jorden passerer meteorsværmen Geminiderne. Op mod 120 stjerneskud i timen, topper 14-15 december.


Vejr3>N more information Vejr3>N


Vejr3>V more information Vejr3>V


3 timers nedbørs radar more information rain snow radar


besøg nogle andre vejrsider:

Template dokumentation
og downloads

And another site


Select another period ( hide this area )

enheder periode Custom range Directly to
metrisk engelsk både
dagens ugenligt månedlig årligt
use both date-selectors for a custom range
forgående dag
With this date

WeatherUnderground graphs for this period ( click here )


dagens sammenfatning af torsdag 21 februar 2019
tid Temp. ( °C ) Dew pt. ( °C ) vind ( km/h ) fra vindstød ( km/h ) lufttryk ( hPa ) Humid.( % ) Rainrate ( cm ) solenergi ( W/m2 )
høj8,3 8,3 27,8 vsv ( 966/4405 ) 18,7 1023,9 100 1,00 193
gennemsnit6,8 6,8 16,3 sv #55/271 8,9 1017,0 100 0,90 48 #108/271
lav3,9 3,9 5,6   2,1 1014,6 100 -  
dagens Tabular details for torsdag 21 februar 2019
tid Temp. ( °C ) Dew pt. ( °C ) vind ( km/h ) fra vindstød ( km/h ) lufttryk ( hPa ) Humid.( % ) Rainrate ( cm ) solenergi ( W/m2 )
00:04 6,2 6,2 16,7 ssø 9,7 1015,9 100 0,50 -
00:07 6,2 6,2 13,0 sv 6,6 1015,9 100 0,50 -
00:14 6,2 6,2 14,8 8,0 1015,9 100 0,50 -
00:19 6,2 6,2 18,5 ssø 10,5 1015,8 100 0,50 -
00:24 6,3 6,3 9,3 ssø 5,0 1015,8 100 0,50 -
00:29 6,3 6,3 18,5 syd 10,6 1015,8 100 0,50 -
00:34 6,2 6,2 11,1 syd 5,3 1015,8 100 0,50 -
00:39 6,2 6,2 17,7 ssø 4,8 1015,7 100 0,50 -
00:44 6,3 6,3 12,9 sv 7,9 1015,7 100 0,50 -
00:49 6,3 6,3 18,5 vsv 11,4 1015,7 100 0,50 -
00:54 6,3 6,3 14,8 syd 7,1 1015,7 100 0,50 -
00:59 6,3 6,3 13,0 syd 8,7 1015,7 100 0,50 -
01:04 6,3 6,3 11,3 vsv 6,0 1015,7 100 0,50 -
01:09 6,3 6,3 9,3 sv 5,0 1015,7 100 0,80 -
01:14 6,3 6,3 11,1 ssø 5,3 1015,6 100 0,80 -
01:19 6,3 6,3 16,7 ssø 6,4 1015,7 100 0,50 -
01:24 6,3 6,3 13,0 syd 6,4 1015,6 100 0,50 -
01:29 6,3 6,3 14,8 sv 6,6 1015,6 100 0,50 -
01:34 6,3 6,3 11,1 sv 5,5 1015,6 100 0,80 -
01:39 6,3 6,3 11,1 vsv 3,7 1015,7 100 0,50 -
01:44 6,3 6,3 9,7 syd 4,2 1015,7 100 0,50 -
01:49 6,3 6,3 11,1 vsv 7,4 1015,8 100 0,80 -
01:54 6,3 6,3 7,4 ssø 4,2 1015,8 100 0,50 -
01:59 6,3 6,3 12,9 sv 5,8 1015,7 100 0,50 -
02:04 6,3 6,3 11,3 ssø 6,8 1015,7 100 0,50 -
02:09 6,3 6,3 11,1 sv 2,9 1015,7 100 0,50 -
02:14 6,3 6,3 5,6 vsv 4,0 1015,6 100 0,50 -
02:19 6,3 6,3 14,8 vest 8,2 1015,6 100 0,50 -
02:24 6,3 6,3 16,7 ssø 7,9 1015,5 100 0,50 -
02:29 6,4 6,4 9,3 ssø 4,8 1015,5 100 0,50 -
02:34 6,4 6,4 14,8 sv 5,1 1015,5 100 0,50 -
02:39 6,4 6,4 5,6 sv 2,4 1015,4 100 0,50 -
02:44 6,4 6,4 9,7 sv 5,5 1015,4 100 0,50 -
02:49 6,4 6,4 9,3 vnv 4,2 1015,5 100 0,50 -
02:54 6,4 6,4 16,7 ssø 5,1 1015,5 100 0,50 -
02:59 6,4 6,4 14,8 ssø 4,0 1015,5 100 0,50 -
03:04 6,4 6,4 9,3 ssø 3,7 1015,5 100 0,50 -
03:09 6,4 6,4 7,4 syd 3,5 1015,6 100 0,50 -
03:14 6,4 6,4 16,7 sv 3,7 1015,6 100 0,50 -
03:19 6,5 6,5 18,5 vsv 5,8 1015,6 100 0,30 -
03:24 6,5 6,5 14,8 ssø 9,5 1015,6 100 0,30 -
03:29 6,5 6,5 19,3 ssø 7,4 1015,6 100 0,30 -
03:34 6,5 6,5 5,6 vsv 2,7 1015,5 100 0,30 -
03:39 6,5 6,5 22,2 sv 9,0 1015,5 100 0,30 -
03:44 6,5 6,5 13,0 sv 7,1 1015,5 100 0,30 -
03:49 6,5 6,5 7,4 syd 4,5 1015,5 100 0,30 -
03:54 6,5 6,5 18,5 sv 9,0 1015,5 100 0,30 -
03:59 6,5 6,5 11,1 sv 6,6 1015,4 100 0,30 -
04:04 6,5 6,5 16,7 sv 11,3 1015,4 100 0,30 -
04:09 6,5 6,5 18,5 vest 7,9 1015,4 100 0,30 -
04:14 6,5 6,5 13,0 syd 4,0 1015,4 100 0,30 -
04:19 6,5 6,5 14,8 syd 7,2 1015,3 100 0,30 -
04:24 6,6 6,6 18,5 sv 6,4 1015,3 100 0,30 -
04:29 6,6 6,6 17,7 vest 6,6 1015,3 100 0,30 -
04:34 6,6 6,6 16,7 vnv 6,0 1015,3 100 0,30 -
04:39 6,6 6,6 6,4 sv 3,4 1015,3 100 0,30 -
04:44 6,6 6,6 9,3 ssø 2,6 1015,3 100 0,30 -
04:49 6,6 6,6 16,7 vsv 9,0 1015,3 100 - -
04:54 6,6 6,6 16,7 vest 8,5 1015,3 100 - -
04:59 6,6 6,6 20,4 syd 8,0 1015,4 100 - -
05:04 6,6 6,6 18,5 ssø 11,3 1015,4 100 - -
05:09 6,6 6,6 14,8 vsv 6,0 1015,3 100 - -
05:14 6,6 6,6 18,5 sv 8,5 1015,3 100 - -
05:19 6,6 6,6 11,3 sv 9,0 1015,2 100 - -
05:24 6,6 6,6 18,5 vest 7,6 1015,2 100 - -
05:29 6,6 6,6 20,4 ssø 13,4 1015,2 100 - -
05:34 6,6 6,6 14,8 sv 8,4 1015,2 100 0,30 -
05:39 6,6 6,6 14,5 syd 7,7 1015,1 100 0,30 -
05:44 6,6 6,6 20,4 sv 11,1 1015,1 100 0,30 -
05:49 6,5 6,5 16,7 sv 5,5 1015,1 100 0,30 -
05:54 6,5 6,5 11,1 sv 6,8 1015,1 100 0,30 -
05:59 6,5 6,5 16,7 ssø 7,4 1015,0 100 0,30 -
06:04 6,5 6,5 20,9 sv 11,3 1015,0 100 0,30 -
06:09 6,5 6,5 14,5 ssø 7,4 1015,0 100 0,50 -
06:14 6,5 6,5 11,1 ssø 3,5 1015,1 100 0,50 -
06:19 6,4 6,4 8,0 syd 5,1 1015,0 100 0,50 -
06:24 6,4 6,4 9,3 syd 4,2 1014,9 100 0,50 -
06:29 6,4 6,4 8,0 ssø 5,3 1014,9 100 0,50 -
06:34 6,4 6,4 11,1 ssø 5,3 1015,0 100 0,50 -
06:39 6,4 6,4 16,7 sv 8,2 1015,1 100 0,50 -
06:44 6,4 6,4 7,4 ssø 2,7 1015,1 100 0,50 -
06:49 6,4 6,4 14,5 ssø 4,3 1015,2 100 0,80 -
06:54 6,4 6,4 11,1 vest 6,1 1015,2 100 0,80 -
06:59 6,5 6,5 14,8 ssø 6,3 1015,1 100 0,80 -
07:04 6,5 6,5 17,7 vsv 4,5 1015,1 100 0,80 -
07:09 6,5 6,5 22,2 ssø 7,4 1015,1 100 0,50 -
07:14 6,5 6,5 14,5 ssø 7,6 1015,1 100 0,50 -
07:19 6,5 6,5 11,1 ssø 2,7 1015,0 100 0,50 -
07:24 6,4 6,4 16,7 sv 3,2 1014,9 100 0,50 -
07:29 6,4 6,4 12,9 sv 6,6 1015,0 100 0,50 -
07:34 6,4 6,4 14,5 syd 7,4 1014,9 100 0,50 -
07:39 6,4 6,4 8,0 syd 3,9 1014,9 100 0,50 -
07:44 6,4 6,4 11,3 vsv 6,4 1014,8 100 0,50 -
07:49 6,4 6,4 25,7 ssø 13,5 1014,6 100 0,50 -
07:54 6,4 6,4 19,3 syd 9,3 1014,6 100 0,30 5
07:59 6,4 6,4 16,7 vsv 10,6 1014,6 100 0,30 5
08:04 6,4 6,4 20,9 sv 9,0 1014,6 100 0,30 9
08:09 6,4 6,4 14,8 ssø 7,1 1014,6 100 0,30 12
08:14 6,4 6,4 22,2 ssø 8,5 1014,6 100 0,30 21
08:19 6,4 6,4 17,7 ssø 6,9 1014,6 100 0,30 18
08:24 6,4 6,4 25,9 ssø 13,5 1014,6 100 0,30 19
08:29 6,4 6,4 11,1 ssø 4,3 1014,6 100 - 25
08:34 6,4 6,4 22,2 vsv 8,0 1015,0 100 - 23
08:39 6,4 6,4 11,1 ssø 6,8 1015,0 100 - 26
08:44 6,4 6,4 22,2 sv 10,8 1015,2 100 - 26
08:49 6,5 6,5 17,7 ssø 9,7 1015,3 100 - 25
08:54 6,5 6,5 20,4 ssø 8,0 1015,2 100 - 25
08:59 6,5 6,5 18,5 sv 7,9 1015,4 100 - 12
09:04 6,5 6,5 24,1 vest 10,6 1015,5 100 - 12
09:09 6,5 6,5 11,1 vsv 7,7 1015,7 100 - 14
09:14 6,6 6,6 25,9 sv 13,2 1015,8 100 - 62
09:19 6,6 6,6 22,2 vsv 11,4 1015,8 100 - 32
09:24 6,6 6,6 27,8 ssø 15,9 1015,9 100 - 12
09:29 6,6 6,6 18,5 sv 11,9 1015,8 100 - 26
09:34 6,7 6,7 16,7 ssø 11,9 1015,8 100 - 32
09:39 6,7 6,7 11,1 vsv 3,1 1015,9 100 - 23
09:44 6,7 6,7 20,9 vsv 16,3 1016,0 100 - 26
09:49 6,7 6,7 20,4 sv 9,2 1015,9 100 - 23
09:54 6,7 6,7 18,5 vsv 9,0 1016,0 100 - 23
09:59 6,7 6,7 24,1 vsv 13,2 1016,0 100 - 25
10:04 6,7 6,7 16,1 sv 8,2 1016,0 100 - 21
10:09 6,7 6,7 24,1 vsv 11,1 1016,0 100 - 18
10:14 6,7 6,7 24,1 vest 14,5 1016,1 100 - 16
10:19 6,7 6,7 20,4 vsv 15,8 1016,1 100 - 16
10:24 6,7 6,7 18,5 vsv 10,0 1016,2 100 - 18
10:29 6,7 6,7 22,2 vest 15,8 1016,2 100 - 23
10:34 6,7 6,7 20,9 vsv 14,8 1016,3 100 - 18
10:39 6,7 6,7 16,7 sv 7,9 1016,2 100 0,30 19
10:44 6,7 6,7 25,9 sv 18,3 1016,2 100 0,30 30
10:49 6,7 6,7 14,5 sv 7,7 1016,3 100 0,30 28
10:54 6,7 6,7 18,5 vsv 14,0 1016,2 100 0,50 32
10:59 6,7 6,7 14,8 sv 9,2 1016,4 100 0,50 25
11:04 6,7 6,7 14,8 sv 11,7 1016,3 100 0,50 26
11:09 6,7 6,7 22,2 sv 11,9 1016,4 100 0,50 21
11:14 6,7 6,7 13,0 vest 10,0 1016,4 100 0,50 32
11:19 6,8 6,8 18,5 vsv 12,2 1016,4 100 0,50 44
11:24 6,8 6,8 11,3 vsv 9,0 1016,4 100 0,50 37
11:29 6,8 6,8 16,7 sv 6,3 1016,4 100 0,50 23
11:34 6,8 6,8 16,7 vsv 8,8 1016,4 100 0,50 37
11:39 6,8 6,8 18,5 ssø 9,5 1016,4 100 0,30 67
11:44 6,9 6,9 18,5 ssø 10,9 1016,1 100 0,30 193
11:49 7,1 7,1 14,8 ssø 7,7 1015,8 100 0,30 146
11:54 7,2 7,2 14,8 vest 7,6 1015,7 100 0,30 121
11:59 7,2 7,2 24,1 syd 15,9 1015,3 100 0,30 125
12:04 7,2 7,2 25,7 sv 12,9 1015,5 100 0,30 111
12:09 7,2 7,2 22,2 syd 10,6 1015,6 100 0,30 69
12:14 7,1 7,1 14,8 ssø 5,3 1015,6 100 0,30 72
12:19 7,2 7,2 25,7 ssø 13,0 1015,7 100 0,30 137
12:24 7,2 7,2 24,1 ssø 13,7 1015,7 100 0,30 160
12:29 7,3 7,3 25,7 vsv 11,4 1015,7 100 0,30 120
12:34 7,4 7,4 11,3 sv 10,3 1015,7 100 0,30 130
12:39 7,5 7,5 20,9 sv 13,7 1015,8 100 0,30 91
12:44 7,6 7,6 14,8 ssø 4,2 1015,8 100 0,30 130
12:49 7,7 7,7 13,0 ssø 7,2 1015,9 100 0,30 120
12:54 7,8 7,8 22,2 sv 11,4 1015,9 100 0,30 95
12:59 7,8 7,8 22,2 vsv 17,5 1016,0 100 - 69
13:04 7,8 7,8 20,4 vsv 10,1 1016,2 100 - 58
13:09 7,8 7,8 16,7 sv 8,8 1016,2 100 - 40
13:14 7,8 7,8 8,0 vsv 4,3 1016,3 100 - 56
13:19 7,8 7,8 20,4 vest 11,9 1016,2 100 - 67
13:24 7,9 7,9 20,4 sv 10,3 1016,3 100 - 40
13:29 7,9 7,9 24,1 sv 10,3 1016,3 100 - 47
13:34 7,8 7,8 16,7 vest 9,5 1016,3 100 - 53
13:39 7,9 7,9 18,5 vest 8,2 1016,3 100 - 58
13:44 7,9 7,9 24,1 vsv 13,5 1016,3 100 - 70
13:49 7,9 7,9 27,8 vsv 15,4 1016,3 100 - 72
13:54 7,9 7,9 18,5 vest 6,4 1016,3 100 - 76
13:59 8,0 8,0 20,4 vsv 10,5 1016,3 100 - 90
14:04 8,0 8,0 27,8 vest 18,0 1016,3 100 - 100
14:09 8,1 8,1 20,4 vsv 13,0 1016,3 100 - 93
14:14 8,1 8,1 27,8 vsv 16,7 1016,4 100 - 91
14:19 8,1 8,1 27,8 ssø 18,7 1016,5 100 - 76
14:24 8,1 8,1 16,1 sv 9,5 1016,5 100 - 46
14:29 8,1 8,1 18,5 vest 12,4 1016,5 100 - 40
14:34 8,1 8,1 14,8 vsv 9,3 1016,7 100 - 53
14:39 8,1 8,1 22,2 vsv 14,2 1016,6 100 - 60
14:44 8,1 8,1 20,4 sv 11,3 1016,6 100 - 77
14:49 8,1 8,1 20,4 vsv 6,3 1016,7 100 - 91
14:54 8,1 8,1 20,9 vsv 11,3 1016,6 100 - 95
14:59 8,2 8,2 11,3 sv 5,1 1016,7 100 - 93
15:04 8,2 8,2 9,3 vsv 4,7 1016,8 100 - 84
15:09 8,3 8,3 25,9 vsv 8,0 1016,8 100 - 91
15:14 8,3 8,3 16,1 vsv 7,2 1017,0 100 - 67
15:19 8,3 8,3 22,2 vsv 12,9 1017,0 100 - 30
15:24 8,3 8,3 22,2 vsv 14,3 1017,0 100 - 39
15:29 8,3 8,3 16,7 vsv 8,8 1017,0 100 - 42
15:34 8,3 8,3 18,5 sv 12,4 1017,0 100 - 39
15:39 8,2 8,2 18,5 sv 12,2 1017,1 100 - 26
15:44 8,2 8,2 18,5 vsv 9,2 1017,2 100 - 25
15:49 8,2 8,2 16,7 vest 10,0 1017,3 100 - 19
15:54 8,2 8,2 18,5 sv 8,2 1017,3 100 0,50 18
15:59 8,1 8,1 9,3 vsv 7,1 1017,3 100 0,50 14
16:04 8,1 8,1 11,1 vest 3,7 1017,4 100 0,50 14
16:09 8,1 8,1 7,4 vest 5,5 1017,5 100 0,50 18
16:14 8,1 8,1 6,4 vest 4,3 1017,5 100 0,50 11
16:19 8,1 8,1 5,6 vnv 2,1 1017,5 100 0,50 7
16:24 8,1 8,1 16,7 vest 8,0 1017,5 100 0,50 7
16:29 8,0 8,0 6,4 vnv 5,5 1017,5 100 0,50 9
16:34 8,0 8,0 16,7 vest 7,6 1017,5 100 0,80 9
16:39 7,9 7,9 14,8 vsv 8,4 1017,5 100 0,80 9
16:44 7,9 7,9 18,5 vsv 10,0 1017,6 100 1,00 5
16:49 7,9 7,9 11,1 vest 7,6 1017,6 100 1,00 5
16:54 7,9 7,9 11,1 vest 9,2 1017,6 100 0,50 -
16:59 7,9 7,9 18,5 vest 10,1 1017,7 100 0,80 -
17:04 7,9 7,9 20,4 vest 8,2 1017,7 100 0,80 -
17:09 7,8 7,8 18,5 vsv 10,8 1017,7 100 0,80 -
17:14 7,8 7,8 20,4 vsv 14,0 1017,8 100 0,80 -
17:19 7,8 7,8 17,7 vest 10,3 1017,9 100 0,80 -
17:24 7,8 7,8 18,5 vest 8,4 1017,9 100 0,50 -
17:29 7,8 7,8 18,5 vest 9,5 1018,0 100 0,80 -
17:34 7,8 7,8 18,5 vest 8,2 1018,1 100 0,50 -
17:39 7,8 7,8 16,7 vest 9,5 1018,2 100 0,50 -
17:44 7,8 7,8 18,5 vest 10,3 1018,2 100 0,50 -
17:49 7,8 7,8 18,5 vest 10,6 1018,3 100 0,50 -
17:54 7,8 7,8 22,2 vsv 5,8 1018,3 100 0,50 -
17:59 7,8 7,8 18,5 vest 11,9 1018,4 100 0,30 -
18:04 7,7 7,7 27,8 vest 13,5 1018,5 100 0,30 -
18:09 7,7 7,7 18,5 vsv 13,2 1018,6 100 0,30 -
18:14 7,6 7,6 16,7 vest 11,4 1018,8 100 0,30 -
18:19 7,6 7,6 16,7 vest 10,5 1018,9 100 0,30 -
18:24 7,6 7,6 16,7 vnv 7,7 1019,0 100 0,30 -
18:29 7,6 7,6 7,4 vnv 5,3 1019,0 100 0,30 -
18:34 7,6 7,6 11,1 vnv 6,1 1019,1 100 - -
18:39 7,5 7,5 11,1 vest 7,6 1019,1 100 - -
18:44 7,5 7,5 11,1 vest 6,9 1019,2 100 - -
18:49 7,5 7,5 9,3 vnv 7,6 1019,2 100 - -
18:54 7,5 7,5 9,7 vnv 5,1 1019,2 100 - -
18:59 7,5 7,5 11,3 vnv 5,8 1019,4 100 - -
19:04 7,5 7,5 5,6 vnv 5,5 1019,4 100 - -
19:09 7,6 7,6 9,3 nv 7,7 1019,6 100 - -
19:14 7,6 7,6 14,8 vnv 11,1 1019,6 100 - -
19:19 7,6 7,6 18,5 vnv 9,3 1019,7 100 - -
19:24 7,5 7,5 16,1 vnv 10,0 1019,8 100 - -
19:29 7,4 7,4 18,5 nv 14,0 1019,8 100 - -
19:34 7,3 7,3 16,7 nv 7,4 1019,8 100 - -
19:39 7,1 7,1 13,0 nnv 10,0 1019,9 100 - -
19:44 6,8 6,8 8,0 nv 5,3 1020,0 100 - -
19:49 6,7 6,7 9,7 nnv 4,7 1020,2 100 - -
19:54 6,7 6,7 9,7 nnv 7,9 1020,2 100 - -
19:59 6,6 6,6 5,6 nnv 4,8 1020,2 100 - -
20:04 6,5 6,5 11,1 nnv 8,7 1020,3 100 - -
20:09 6,5 6,5 9,3 nord 4,5 1020,3 100 - -
20:14 6,4 6,4 8,0 nnv 5,8 1020,5 100 - -
20:19 6,4 6,4 14,5 nnv 10,9 1020,8 100 - -
20:24 6,3 6,3 19,3 nnv 13,0 1021,0 100 - -
20:29 6,1 6,1 24,1 nnv 17,9 1021,3 100 - -
20:34 5,8 5,8 22,2 nv 16,4 1021,3 100 - -
20:39 5,6 5,6 18,5 nnv 16,9 1021,3 100 - -
20:44 5,4 5,4 14,5 nv 7,9 1021,3 100 - -
20:49 5,4 5,4 14,8 nv 10,1 1021,4 100 - -
20:54 5,3 5,3 11,3 nnv 8,7 1021,5 100 - -
20:59 5,2 5,2 16,7 nv 8,2 1021,6 100 - -
21:04 5,1 5,1 13,0 nv 10,8 1021,7 100 - -
21:09 5,1 5,1 16,7 nv 9,3 1021,7 100 - -
21:14 5,0 5,0 18,5 vnv 9,0 1021,9 100 - -
21:19 4,9 4,9 22,5 nv 15,4 1022,0 100 - -
21:24 4,8 4,8 20,9 nv 15,6 1022,2 100 - -
21:29 4,7 4,7 22,2 nnv 15,9 1022,4 100 - -
21:34 4,6 4,6 24,1 nnv 14,3 1022,6 100 - -
21:39 4,4 4,4 18,5 nnv 13,5 1022,5 100 - -
21:44 4,4 4,4 22,5 nv 12,9 1022,7 100 - -
21:49 4,3 4,3 18,5 nnv 14,8 1022,7 100 - -
21:54 4,3 4,3 18,5 vnv 10,6 1022,9 100 - -
21:59 4,2 4,2 20,4 nnv 13,8 1023,0 100 - -
22:04 4,0 4,0 22,2 nnv 16,3 1023,1 100 - -
22:09 3,9 3,9 18,5 nv 15,0 1023,2 100 - -
22:14 3,9 3,9 16,1 nnv 9,8 1023,4 100 - -
22:19 3,9 3,9 18,5 nnø 12,9 1023,5 100 - -
22:24 3,9 3,9 13,0 nnv 9,2 1023,6 100 - -
22:29 3,9 3,9 14,8 nord 9,3 1023,8 100 - -
22:34 3,9 3,9 9,7 nnv 7,1 1023,9 100 - -
dagens sammenfatning af torsdag 21 februar 2019
tid Temp. ( °C ) Dew pt. ( °C ) vind ( km/h ) fra vindstød ( km/h ) lufttryk ( hPa ) Humid.( % ) Rainrate ( cm ) solenergi ( W/m2 )
høj8,3 8,3 27,8 vsv ( 966/4405 ) 18,7 1023,9 100 1,00 193
gennemsnit6,8 6,8 16,3 sv #55/271 8,9 1017,0 100 0,90 48 #108/271
lav3,9 3,9 5,6   2,1 1014,6 100 -  
dagens Tabular details for torsdag 21 februar 2019
tid Temp. ( °C ) Dew pt. ( °C ) vind ( km/h ) fra vindstød ( km/h ) lufttryk ( hPa ) Humid.( % ) Rainrate ( cm ) solenergi ( W/m2 )
00:04 6,2 6,2 16,7 ssø 9,7 1015,9 100 0,50 -
00:07 6,2 6,2 13,0 sv 6,6 1015,9 100 0,50 -
00:14 6,2 6,2 14,8 8,0 1015,9 100 0,50 -
00:19 6,2 6,2 18,5 ssø 10,5 1015,8 100 0,50 -
00:24 6,3 6,3 9,3 ssø 5,0 1015,8 100 0,50 -
00:29 6,3 6,3 18,5 syd 10,6 1015,8 100 0,50 -
00:34 6,2 6,2 11,1 syd 5,3 1015,8 100 0,50 -
00:39 6,2 6,2 17,7 ssø 4,8 1015,7 100 0,50 -
00:44 6,3 6,3 12,9 sv 7,9 1015,7 100 0,50 -
00:49 6,3 6,3 18,5 vsv 11,4 1015,7 100 0,50 -
00:54 6,3 6,3 14,8 syd 7,1 1015,7 100 0,50 -
00:59 6,3 6,3 13,0 syd 8,7 1015,7 100 0,50 -
01:04 6,3 6,3 11,3 vsv 6,0 1015,7 100 0,50 -
01:09 6,3 6,3 9,3 sv 5,0 1015,7 100 0,80 -
01:14 6,3 6,3 11,1 ssø 5,3 1015,6 100 0,80 -
01:19 6,3 6,3 16,7 ssø 6,4 1015,7 100 0,50 -
01:24 6,3 6,3 13,0 syd 6,4 1015,6 100 0,50 -
01:29 6,3 6,3 14,8 sv 6,6 1015,6 100 0,50 -
01:34 6,3 6,3 11,1 sv 5,5 1015,6 100 0,80 -
01:39 6,3 6,3 11,1 vsv 3,7 1015,7 100 0,50 -
01:44 6,3 6,3 9,7 syd 4,2 1015,7 100 0,50 -
01:49 6,3 6,3 11,1 vsv 7,4 1015,8 100 0,80 -
01:54 6,3 6,3 7,4 ssø 4,2 1015,8 100 0,50 -
01:59 6,3 6,3 12,9 sv 5,8 1015,7 100 0,50 -
02:04 6,3 6,3 11,3 ssø 6,8 1015,7 100 0,50 -
02:09 6,3 6,3 11,1 sv 2,9 1015,7 100 0,50 -
02:14 6,3 6,3 5,6 vsv 4,0 1015,6 100 0,50 -
02:19 6,3 6,3 14,8 vest 8,2 1015,6 100 0,50 -
02:24 6,3 6,3 16,7 ssø 7,9 1015,5 100 0,50 -
02:29 6,4 6,4 9,3 ssø 4,8 1015,5 100 0,50 -
02:34 6,4 6,4 14,8 sv 5,1 1015,5 100 0,50 -
02:39 6,4 6,4 5,6 sv 2,4 1015,4 100 0,50 -
02:44 6,4 6,4 9,7 sv 5,5 1015,4 100 0,50 -
02:49 6,4 6,4 9,3 vnv 4,2 1015,5 100 0,50 -
02:54 6,4 6,4 16,7 ssø 5,1 1015,5 100 0,50 -
02:59 6,4 6,4 14,8 ssø 4,0 1015,5 100 0,50 -
03:04 6,4 6,4 9,3 ssø 3,7 1015,5 100 0,50 -
03:09 6,4 6,4 7,4 syd 3,5 1015,6 100 0,50 -
03:14 6,4 6,4 16,7 sv 3,7 1015,6 100 0,50 -
03:19 6,5 6,5 18,5 vsv 5,8 1015,6 100 0,30 -
03:24 6,5 6,5 14,8 ssø 9,5 1015,6 100 0,30 -
03:29 6,5 6,5 19,3 ssø 7,4 1015,6 100 0,30 -
03:34 6,5 6,5 5,6 vsv 2,7 1015,5 100 0,30 -
03:39 6,5 6,5 22,2 sv 9,0 1015,5 100 0,30 -
03:44 6,5 6,5 13,0 sv 7,1 1015,5 100 0,30 -
03:49 6,5 6,5 7,4 syd 4,5 1015,5 100 0,30 -
03:54 6,5 6,5 18,5 sv 9,0 1015,5 100 0,30 -
03:59 6,5 6,5 11,1 sv 6,6 1015,4 100 0,30 -
04:04 6,5 6,5 16,7 sv 11,3 1015,4 100 0,30 -
04:09 6,5 6,5 18,5 vest 7,9 1015,4 100 0,30 -
04:14 6,5 6,5 13,0 syd 4,0 1015,4 100 0,30 -
04:19 6,5 6,5 14,8 syd 7,2 1015,3 100 0,30 -
04:24 6,6 6,6 18,5 sv 6,4 1015,3 100 0,30 -
04:29 6,6 6,6 17,7 vest 6,6 1015,3 100 0,30 -
04:34 6,6 6,6 16,7 vnv 6,0 1015,3 100 0,30 -
04:39 6,6 6,6 6,4 sv 3,4 1015,3 100 0,30 -
04:44 6,6 6,6 9,3 ssø 2,6 1015,3 100 0,30 -
04:49 6,6 6,6 16,7 vsv 9,0 1015,3 100 - -
04:54 6,6 6,6 16,7 vest 8,5 1015,3 100 - -
04:59 6,6 6,6 20,4 syd 8,0 1015,4 100 - -
05:04 6,6 6,6 18,5 ssø 11,3 1015,4 100 - -
05:09 6,6 6,6 14,8 vsv 6,0 1015,3 100 - -
05:14 6,6 6,6 18,5 sv 8,5 1015,3 100 - -
05:19 6,6 6,6 11,3 sv 9,0 1015,2 100 - -
05:24 6,6 6,6 18,5 vest 7,6 1015,2 100 - -
05:29 6,6 6,6 20,4 ssø 13,4 1015,2 100 - -
05:34 6,6 6,6 14,8 sv 8,4 1015,2 100 0,30 -
05:39 6,6 6,6 14,5 syd 7,7 1015,1 100 0,30 -
05:44 6,6 6,6 20,4 sv 11,1 1015,1 100 0,30 -
05:49 6,5 6,5 16,7 sv 5,5 1015,1 100 0,30 -
05:54 6,5 6,5 11,1 sv 6,8 1015,1 100 0,30 -
05:59 6,5 6,5 16,7 ssø 7,4 1015,0 100 0,30 -
06:04 6,5 6,5 20,9 sv 11,3 1015,0 100 0,30 -
06:09 6,5 6,5 14,5 ssø 7,4 1015,0 100 0,50 -
06:14 6,5 6,5 11,1 ssø 3,5 1015,1 100 0,50 -
06:19 6,4 6,4 8,0 syd 5,1 1015,0 100 0,50 -
06:24 6,4 6,4 9,3 syd 4,2 1014,9 100 0,50 -
06:29 6,4 6,4 8,0 ssø 5,3 1014,9 100 0,50 -
06:34 6,4 6,4 11,1 ssø 5,3 1015,0 100 0,50 -
06:39 6,4 6,4 16,7 sv 8,2 1015,1 100 0,50 -
06:44 6,4 6,4 7,4 ssø 2,7 1015,1 100 0,50 -
06:49 6,4 6,4 14,5 ssø 4,3 1015,2 100 0,80 -
06:54 6,4 6,4 11,1 vest 6,1 1015,2 100 0,80 -
06:59 6,5 6,5 14,8 ssø 6,3 1015,1 100 0,80 -
07:04 6,5 6,5 17,7 vsv 4,5 1015,1 100 0,80 -
07:09 6,5 6,5 22,2 ssø 7,4 1015,1 100 0,50 -
07:14 6,5 6,5 14,5 ssø 7,6 1015,1 100 0,50 -
07:19 6,5 6,5 11,1 ssø 2,7 1015,0 100 0,50 -
07:24 6,4 6,4 16,7 sv 3,2 1014,9 100 0,50 -
07:29 6,4 6,4 12,9 sv 6,6 1015,0 100 0,50 -
07:34 6,4 6,4 14,5 syd 7,4 1014,9 100 0,50 -
07:39 6,4 6,4 8,0 syd 3,9 1014,9 100 0,50 -
07:44 6,4 6,4 11,3 vsv 6,4 1014,8 100 0,50 -
07:49 6,4 6,4 25,7 ssø 13,5 1014,6 100 0,50 -
07:54 6,4 6,4 19,3 syd 9,3 1014,6 100 0,30 5
07:59 6,4 6,4 16,7 vsv 10,6 1014,6 100 0,30 5
08:04 6,4 6,4 20,9 sv 9,0 1014,6 100 0,30 9
08:09 6,4 6,4 14,8 ssø 7,1 1014,6 100 0,30 12
08:14 6,4 6,4 22,2 ssø 8,5 1014,6 100 0,30 21
08:19 6,4 6,4 17,7 ssø 6,9 1014,6 100 0,30 18
08:24 6,4 6,4 25,9 ssø 13,5 1014,6 100 0,30 19
08:29 6,4 6,4 11,1 ssø 4,3 1014,6 100 - 25
08:34 6,4 6,4 22,2 vsv 8,0 1015,0 100 - 23
08:39 6,4 6,4 11,1 ssø 6,8 1015,0 100 - 26
08:44 6,4 6,4 22,2 sv 10,8 1015,2 100 - 26
08:49 6,5 6,5 17,7 ssø 9,7 1015,3 100 - 25
08:54 6,5 6,5 20,4 ssø 8,0 1015,2 100 - 25
08:59 6,5 6,5 18,5 sv 7,9 1015,4 100 - 12
09:04 6,5 6,5 24,1 vest 10,6 1015,5 100 - 12
09:09 6,5 6,5 11,1 vsv 7,7 1015,7 100 - 14
09:14 6,6 6,6 25,9 sv 13,2 1015,8 100 - 62
09:19 6,6 6,6 22,2 vsv 11,4 1015,8 100 - 32
09:24 6,6 6,6 27,8 ssø 15,9 1015,9 100 - 12
09:29 6,6 6,6 18,5 sv 11,9 1015,8 100 - 26
09:34 6,7 6,7 16,7 ssø 11,9 1015,8 100 - 32
09:39 6,7 6,7 11,1 vsv 3,1 1015,9 100 - 23
09:44 6,7 6,7 20,9 vsv 16,3 1016,0 100 - 26
09:49 6,7 6,7 20,4 sv 9,2 1015,9 100 - 23
09:54 6,7 6,7 18,5 vsv 9,0 1016,0 100 - 23
09:59 6,7 6,7 24,1 vsv 13,2 1016,0 100 - 25
10:04 6,7 6,7 16,1 sv 8,2 1016,0 100 - 21
10:09 6,7 6,7 24,1 vsv 11,1 1016,0 100 - 18
10:14 6,7 6,7 24,1 vest 14,5 1016,1 100 - 16
10:19 6,7 6,7 20,4 vsv 15,8 1016,1 100 - 16
10:24 6,7 6,7 18,5 vsv 10,0 1016,2 100 - 18
10:29 6,7 6,7 22,2 vest 15,8 1016,2 100 - 23
10:34 6,7 6,7 20,9 vsv 14,8 1016,3 100 - 18
10:39 6,7 6,7 16,7 sv 7,9 1016,2 100 0,30 19
10:44 6,7 6,7 25,9 sv 18,3 1016,2 100 0,30 30
10:49 6,7 6,7 14,5 sv 7,7 1016,3 100 0,30 28
10:54 6,7 6,7 18,5 vsv 14,0 1016,2 100 0,50 32
10:59 6,7 6,7 14,8 sv 9,2 1016,4 100 0,50 25
11:04 6,7 6,7 14,8 sv 11,7 1016,3 100 0,50 26
11:09 6,7 6,7 22,2 sv 11,9 1016,4 100 0,50 21
11:14 6,7 6,7 13,0 vest 10,0 1016,4 100 0,50 32
11:19 6,8 6,8 18,5 vsv 12,2 1016,4 100 0,50 44
11:24 6,8 6,8 11,3 vsv 9,0 1016,4 100 0,50 37
11:29 6,8 6,8 16,7 sv 6,3 1016,4 100 0,50 23
11:34 6,8 6,8 16,7 vsv 8,8 1016,4 100 0,50 37
11:39 6,8 6,8 18,5 ssø 9,5 1016,4 100 0,30 67
11:44 6,9 6,9 18,5 ssø 10,9 1016,1 100 0,30 193
11:49 7,1 7,1 14,8 ssø 7,7 1015,8 100 0,30 146
11:54 7,2 7,2 14,8 vest 7,6 1015,7 100 0,30 121
11:59 7,2 7,2 24,1 syd 15,9 1015,3 100 0,30 125
12:04 7,2 7,2 25,7 sv 12,9 1015,5 100 0,30 111
12:09 7,2 7,2 22,2 syd 10,6 1015,6 100 0,30 69
12:14 7,1 7,1 14,8 ssø 5,3 1015,6 100 0,30 72
12:19 7,2 7,2 25,7 ssø 13,0 1015,7 100 0,30 137
12:24 7,2 7,2 24,1 ssø 13,7 1015,7 100 0,30 160
12:29 7,3 7,3 25,7 vsv 11,4 1015,7 100 0,30 120
12:34 7,4 7,4 11,3 sv 10,3 1015,7 100 0,30 130
12:39 7,5 7,5 20,9 sv 13,7 1015,8 100 0,30 91
12:44 7,6 7,6 14,8 ssø 4,2 1015,8 100 0,30 130
12:49 7,7 7,7 13,0 ssø 7,2 1015,9 100 0,30 120
12:54 7,8 7,8 22,2 sv 11,4 1015,9 100 0,30 95
12:59 7,8 7,8 22,2 vsv 17,5 1016,0 100 - 69
13:04 7,8 7,8 20,4 vsv 10,1 1016,2 100 - 58
13:09 7,8 7,8 16,7 sv 8,8 1016,2 100 - 40
13:14 7,8 7,8 8,0 vsv 4,3 1016,3 100 - 56
13:19 7,8 7,8 20,4 vest 11,9 1016,2 100 - 67
13:24 7,9 7,9 20,4 sv 10,3 1016,3 100 - 40
13:29 7,9 7,9 24,1 sv 10,3 1016,3 100 - 47
13:34 7,8 7,8 16,7 vest 9,5 1016,3 100 - 53
13:39 7,9 7,9 18,5 vest 8,2 1016,3 100 - 58
13:44 7,9 7,9 24,1 vsv 13,5 1016,3 100 - 70
13:49 7,9 7,9 27,8 vsv 15,4 1016,3 100 - 72
13:54 7,9 7,9 18,5 vest 6,4 1016,3 100 - 76
13:59 8,0 8,0 20,4 vsv 10,5 1016,3 100 - 90
14:04 8,0 8,0 27,8 vest 18,0 1016,3 100 - 100
14:09 8,1 8,1 20,4 vsv 13,0 1016,3 100 - 93
14:14 8,1 8,1 27,8 vsv 16,7 1016,4 100 - 91
14:19 8,1 8,1 27,8 ssø 18,7 1016,5 100 - 76
14:24 8,1 8,1 16,1 sv 9,5 1016,5 100 - 46
14:29 8,1 8,1 18,5 vest 12,4 1016,5 100 - 40
14:34 8,1 8,1 14,8 vsv 9,3 1016,7 100 - 53
14:39 8,1 8,1 22,2 vsv 14,2 1016,6 100 - 60
14:44 8,1 8,1 20,4 sv 11,3 1016,6 100 - 77
14:49 8,1 8,1 20,4 vsv 6,3 1016,7 100 - 91
14:54 8,1 8,1 20,9 vsv 11,3 1016,6 100 - 95
14:59 8,2 8,2 11,3 sv 5,1 1016,7 100 - 93
15:04 8,2 8,2 9,3 vsv 4,7 1016,8 100 - 84
15:09 8,3 8,3 25,9 vsv 8,0 1016,8 100 - 91
15:14 8,3 8,3 16,1 vsv 7,2 1017,0 100 - 67
15:19 8,3 8,3 22,2 vsv 12,9 1017,0 100 - 30
15:24 8,3 8,3 22,2 vsv 14,3 1017,0 100 - 39
15:29 8,3 8,3 16,7 vsv 8,8 1017,0 100 - 42
15:34 8,3 8,3 18,5 sv 12,4 1017,0 100 - 39
15:39 8,2 8,2 18,5 sv 12,2 1017,1 100 - 26
15:44 8,2 8,2 18,5 vsv 9,2 1017,2 100 - 25
15:49 8,2 8,2 16,7 vest 10,0 1017,3 100 - 19
15:54 8,2 8,2 18,5 sv 8,2 1017,3 100 0,50 18
15:59 8,1 8,1 9,3 vsv 7,1 1017,3 100 0,50 14
16:04 8,1 8,1 11,1 vest 3,7 1017,4 100 0,50 14
16:09 8,1 8,1 7,4 vest 5,5 1017,5 100 0,50 18
16:14 8,1 8,1 6,4 vest 4,3 1017,5 100 0,50 11
16:19 8,1 8,1 5,6 vnv 2,1 1017,5 100 0,50 7
16:24 8,1 8,1 16,7 vest 8,0 1017,5 100 0,50 7
16:29 8,0 8,0 6,4 vnv 5,5 1017,5 100 0,50 9
16:34 8,0 8,0 16,7 vest 7,6 1017,5 100 0,80 9
16:39 7,9 7,9 14,8 vsv 8,4 1017,5 100 0,80 9
16:44 7,9 7,9 18,5 vsv 10,0 1017,6 100 1,00 5
16:49 7,9 7,9 11,1 vest 7,6 1017,6 100 1,00 5
16:54 7,9 7,9 11,1 vest 9,2 1017,6 100 0,50 -
16:59 7,9 7,9 18,5 vest 10,1 1017,7 100 0,80 -
17:04 7,9 7,9 20,4 vest 8,2 1017,7 100 0,80 -
17:09 7,8 7,8 18,5 vsv 10,8 1017,7 100 0,80 -
17:14 7,8 7,8 20,4 vsv 14,0 1017,8 100 0,80 -
17:19 7,8 7,8 17,7 vest 10,3 1017,9 100 0,80 -
17:24 7,8 7,8 18,5 vest 8,4 1017,9 100 0,50 -
17:29 7,8 7,8 18,5 vest 9,5 1018,0 100 0,80 -
17:34 7,8 7,8 18,5 vest 8,2 1018,1 100 0,50 -
17:39 7,8 7,8 16,7 vest 9,5 1018,2 100 0,50 -
17:44 7,8 7,8 18,5 vest 10,3 1018,2 100 0,50 -
17:49 7,8 7,8 18,5 vest 10,6 1018,3 100 0,50 -
17:54 7,8 7,8 22,2 vsv 5,8 1018,3 100 0,50 -
17:59 7,8 7,8 18,5 vest 11,9 1018,4 100 0,30 -
18:04 7,7 7,7 27,8 vest 13,5 1018,5 100 0,30 -
18:09 7,7 7,7 18,5 vsv 13,2 1018,6 100 0,30 -
18:14 7,6 7,6 16,7 vest 11,4 1018,8 100 0,30 -
18:19 7,6 7,6 16,7 vest 10,5 1018,9 100 0,30 -
18:24 7,6 7,6 16,7 vnv 7,7 1019,0 100 0,30 -
18:29 7,6 7,6 7,4 vnv 5,3 1019,0 100 0,30 -
18:34 7,6 7,6 11,1 vnv 6,1 1019,1 100 - -
18:39 7,5 7,5 11,1 vest 7,6 1019,1 100 - -
18:44 7,5 7,5 11,1 vest 6,9 1019,2 100 - -
18:49 7,5 7,5 9,3 vnv 7,6 1019,2 100 - -
18:54 7,5 7,5 9,7 vnv 5,1 1019,2 100 - -
18:59 7,5 7,5 11,3 vnv 5,8 1019,4 100 - -
19:04 7,5 7,5 5,6 vnv 5,5 1019,4 100 - -
19:09 7,6 7,6 9,3 nv 7,7 1019,6 100 - -
19:14 7,6 7,6 14,8 vnv 11,1 1019,6 100 - -
19:19 7,6 7,6 18,5 vnv 9,3 1019,7 100 - -
19:24 7,5 7,5 16,1 vnv 10,0 1019,8 100 - -
19:29 7,4 7,4 18,5 nv 14,0 1019,8 100 - -
19:34 7,3 7,3 16,7 nv 7,4 1019,8 100 - -
19:39 7,1 7,1 13,0 nnv 10,0 1019,9 100 - -
19:44 6,8 6,8 8,0 nv 5,3 1020,0 100 - -
19:49 6,7 6,7 9,7 nnv 4,7 1020,2 100 - -
19:54 6,7 6,7 9,7 nnv 7,9 1020,2 100 - -
19:59 6,6 6,6 5,6 nnv 4,8 1020,2 100 - -
20:04 6,5 6,5 11,1 nnv 8,7 1020,3 100 - -
20:09 6,5 6,5 9,3 nord 4,5 1020,3 100 - -
20:14 6,4 6,4 8,0 nnv 5,8 1020,5 100 - -
20:19 6,4 6,4 14,5 nnv 10,9 1020,8 100 - -
20:24 6,3 6,3 19,3 nnv 13,0 1021,0 100 - -
20:29 6,1 6,1 24,1 nnv 17,9 1021,3 100 - -
20:34 5,8 5,8 22,2 nv 16,4 1021,3 100 - -
20:39 5,6 5,6 18,5 nnv 16,9 1021,3 100 - -
20:44 5,4 5,4 14,5 nv 7,9 1021,3 100 - -
20:49 5,4 5,4 14,8 nv 10,1 1021,4 100 - -
20:54 5,3 5,3 11,3 nnv 8,7 1021,5 100 - -
20:59 5,2 5,2 16,7 nv 8,2 1021,6 100 - -
21:04 5,1 5,1 13,0 nv 10,8 1021,7 100 - -
21:09 5,1 5,1 16,7 nv 9,3 1021,7 100 - -
21:14 5,0 5,0 18,5 vnv 9,0 1021,9 100 - -
21:19 4,9 4,9 22,5 nv 15,4 1022,0 100 - -
21:24 4,8 4,8 20,9 nv 15,6 1022,2 100 - -
21:29 4,7 4,7 22,2 nnv 15,9 1022,4 100 - -
21:34 4,6 4,6 24,1 nnv 14,3 1022,6 100 - -
21:39 4,4 4,4 18,5 nnv 13,5 1022,5 100 - -
21:44 4,4 4,4 22,5 nv 12,9 1022,7 100 - -
21:49 4,3 4,3 18,5 nnv 14,8 1022,7 100 - -
21:54 4,3 4,3 18,5 vnv 10,6 1022,9 100 - -
21:59 4,2 4,2 20,4 nnv 13,8 1023,0 100 - -
22:04 4,0 4,0 22,2 nnv 16,3 1023,1 100 - -
22:09 3,9 3,9 18,5 nv 15,0 1023,2 100 - -
22:14 3,9 3,9 16,1 nnv 9,8 1023,4 100 - -
22:19 3,9 3,9 18,5 nnø 12,9 1023,5 100 - -
22:24 3,9 3,9 13,0 nnv 9,2 1023,6 100 - -
22:29 3,9 3,9 14,8 nord 9,3 1023,8 100 - -
22:34 3,9 3,9 9,7 nnv 7,1 1023,9 100 - -

Download your copy of this data-set  here

Our weather-data as stored at Weather Underground. script udviklet af Jim McMurry. tilpasset til dette template Leuven-Template.eu

du finder også vores vejrinformationer på:

European Weather Network

Weather Underground

AWEKAS

WeatherlinkIP

Citizen Weather Observer Program (CWOP)

udstyr som vi anvender:

vejrstation
Davis VP2+

vejrprogram
Weather Display

vejrserver
Dell E6400

hjemmeside host
Webhosting.dk

Davis VP2+

Weather Display

Dell E6400

Webhosting.dk